createdAt,value
2022-10-23T00:00:52.356Z,61.53
2022-10-23T00:02:43.681Z,67.13
2022-10-23T00:04:20.647Z,63.47
2022-10-23T00:05:52.907Z,66.90
2022-10-23T00:07:25.312Z,58.10
2022-10-23T00:08:57.616Z,58.83
2022-10-23T00:10:29.893Z,61.87
2022-10-23T00:12:02.039Z,60.23
2022-10-23T00:13:34.604Z,65.93
2022-10-23T00:15:07.560Z,65.27
2022-10-23T00:16:40.007Z,67.80
2022-10-23T00:18:12.234Z,60.17
2022-10-23T00:19:44.654Z,60.47
2022-10-23T00:21:18.399Z,69.53
2022-10-23T00:22:50.557Z,58.90
2022-10-23T00:24:23.143Z,63.33
2022-10-23T00:25:55.339Z,63.97
2022-10-23T00:27:27.570Z,68.43
2022-10-23T00:28:59.863Z,66.67
2022-10-23T00:30:32.276Z,71.20
2022-10-23T00:32:04.653Z,71.67
2022-10-23T00:33:37.969Z,74.47
2022-10-23T00:35:10.605Z,73.77
2022-10-23T00:36:42.980Z,80.40
2022-10-23T00:38:15.179Z,77.00
2022-10-23T00:39:47.519Z,77.87
2022-10-23T00:41:25.685Z,75.73
2022-10-23T00:42:58.040Z,77.70
2022-10-23T00:44:30.099Z,79.07
2022-10-23T00:46:02.543Z,82.07
2022-10-23T00:47:34.825Z,85.87
2022-10-23T00:49:08.463Z,87.93
2022-10-23T00:50:42.266Z,88.37
2022-10-23T00:52:15.230Z,92.30
2022-10-23T00:54:01.270Z,83.33
2022-10-23T00:55:49.233Z,74.27
2022-10-23T00:57:21.661Z,74.50
2022-10-23T00:58:54.071Z,70.77
2022-10-23T01:00:41.416Z,79.47
2022-10-23T01:02:14.771Z,73.40
2022-10-23T01:03:47.783Z,72.90
2022-10-23T01:05:29.199Z,66.70
2022-10-23T01:07:33.179Z,67.07
2022-10-23T01:09:26.141Z,71.17
2022-10-23T01:11:32.780Z,62.87
2022-10-23T01:13:25.792Z,66.43
2022-10-23T01:15:29.257Z,61.03
2022-10-23T01:17:44.442Z,68.23
2022-10-23T01:20:05.215Z,65.53
2022-10-23T01:21:59.582Z,65.27
2022-10-23T01:23:47.135Z,64.17
2022-10-23T01:25:58.847Z,69.57
2022-10-23T01:27:42.241Z,66.73
2022-10-23T01:29:46.622Z,66.83
2022-10-23T01:31:39.991Z,67.07
2022-10-23T01:33:20.693Z,65.93
2022-10-23T01:35:05.317Z,65.40
2022-10-23T01:36:43.337Z,58.83
2022-10-23T01:38:30.161Z,64.37
2022-10-23T01:40:08.519Z,63.77
2022-10-23T01:41:52.601Z,74.60
2022-10-23T01:43:32.624Z,65.63
2022-10-23T01:45:19.232Z,64.53
2022-10-23T01:46:54.758Z,64.47
2022-10-23T01:48:32.002Z,65.63
2022-10-23T01:50:08.406Z,62.53
2022-10-23T01:51:46.789Z,61.80
2022-10-23T01:53:20.843Z,61.60
2022-10-23T01:54:58.111Z,60.47
2022-10-23T01:56:37.950Z,62.27
2022-10-23T01:58:11.934Z,63.67
2022-10-23T01:59:53.342Z,63.00
2022-10-23T02:01:30.957Z,64.00
2022-10-23T02:03:04.650Z,65.53
2022-10-23T02:04:52.891Z,61.43
2022-10-23T02:06:25.344Z,64.97
2022-10-23T02:08:00.312Z,56.87
2022-10-23T02:09:34.502Z,63.20
2022-10-23T02:11:13.906Z,59.00
2022-10-23T02:13:03.312Z,64.43
2022-10-23T02:15:25.868Z,60.27
2022-10-23T02:17:26.881Z,61.73
2022-10-23T02:19:17.750Z,61.20
2022-10-23T02:21:03.676Z,61.67
2022-10-23T02:22:48.801Z,63.10
2022-10-23T02:24:38.644Z,57.30
2022-10-23T02:26:38.381Z,61.07
2022-10-23T02:28:17.801Z,53.93
2022-10-23T02:30:01.124Z,50.77
2022-10-23T02:31:33.762Z,57.03
2022-10-23T02:33:08.746Z,55.57
2022-10-23T02:34:41.506Z,53.23
2022-10-23T02:36:15.500Z,61.00
2022-10-23T02:38:01.063Z,52.93
2022-10-23T02:39:33.343Z,49.53
2022-10-23T02:41:31.095Z,48.70
2022-10-23T02:43:30.509Z,52.60
2022-10-23T02:45:16.537Z,53.27
2022-10-23T02:47:00.623Z,48.67
2022-10-23T02:49:20.486Z,48.47
2022-10-23T02:51:30.587Z,54.13
2022-10-23T02:53:25.504Z,50.70
2022-10-23T02:55:18.811Z,55.00
2022-10-23T02:57:23.474Z,52.63
2022-10-23T02:59:44.004Z,55.43
2022-10-23T03:01:22.984Z,58.87
2022-10-23T03:03:06.660Z,59.73
2022-10-23T03:04:42.367Z,61.07
2022-10-23T03:06:16.399Z,66.47
2022-10-23T03:07:49.584Z,60.97
2022-10-23T03:09:21.707Z,73.90
2022-10-23T03:10:54.086Z,72.93
2022-10-23T03:12:26.280Z,69.10
2022-10-23T03:13:58.492Z,71.80
2022-10-23T03:15:30.797Z,76.13
2022-10-23T03:17:04.691Z,73.67
2022-10-23T03:18:37.016Z,76.50
2022-10-23T03:20:10.743Z,70.30
2022-10-23T03:21:43.407Z,77.23
2022-10-23T03:23:15.637Z,84.07
2022-10-23T03:24:47.866Z,75.03
2022-10-23T03:26:20.279Z,83.27
2022-10-23T03:27:52.409Z,77.47
2022-10-23T03:29:24.556Z,85.57
2022-10-23T03:30:56.731Z,85.00
2022-10-23T03:32:29.075Z,83.80
2022-10-23T03:34:04.043Z,97.00
2022-10-23T03:35:38.580Z,101.07
2022-10-23T03:37:11.145Z,98.50
2022-10-23T03:38:43.337Z,106.50
2022-10-23T03:40:15.574Z,99.47
2022-10-23T03:41:48.404Z,89.00
2022-10-23T03:43:20.620Z,107.63
2022-10-23T03:44:52.794Z,94.07
2022-10-23T03:46:25.054Z,95.27
2022-10-23T03:47:57.419Z,96.83
2022-10-23T03:49:29.846Z,105.07
2022-10-23T03:51:01.985Z,113.00
2022-10-23T03:52:34.135Z,107.07
2022-10-23T03:54:06.704Z,87.57
2022-10-23T03:55:38.893Z,93.10
2022-10-23T03:57:11.260Z,110.77
2022-10-23T03:58:43.479Z,91.10
2022-10-23T04:00:16.840Z,77.90
2022-10-23T04:01:49.580Z,91.80
2022-10-23T04:03:21.780Z,95.50
2022-10-23T04:04:54.975Z,98.87
2022-10-23T04:06:27.326Z,97.57
2022-10-23T04:07:59.864Z,93.33
2022-10-23T04:09:32.017Z,82.10
2022-10-23T04:11:04.225Z,91.67
2022-10-23T04:12:36.833Z,83.80
2022-10-23T04:14:13.546Z,78.40
2022-10-23T04:15:53.319Z,83.33
2022-10-23T04:17:25.895Z,83.50
2022-10-23T04:18:58.139Z,83.93
2022-10-23T04:20:30.389Z,87.13
2022-10-23T04:22:02.783Z,73.13
2022-10-23T04:23:35.192Z,88.20
2022-10-23T04:25:09.019Z,78.57
2022-10-23T04:26:41.644Z,94.33
2022-10-23T04:28:14.000Z,87.40
2022-10-23T04:29:46.222Z,85.27
2022-10-23T04:31:18.361Z,88.53
2022-10-23T04:32:52.106Z,96.33
2022-10-23T04:34:24.623Z,81.67
2022-10-23T04:35:56.967Z,84.30
2022-10-23T04:37:29.169Z,75.53
2022-10-23T04:39:01.491Z,102.30
2022-10-23T04:40:34.127Z,85.13
2022-10-23T04:42:06.313Z,88.73
2022-10-23T04:43:38.828Z,79.10
2022-10-23T04:45:11.599Z,82.17
2022-10-23T04:46:44.571Z,88.20
2022-10-23T04:48:16.914Z,102.07
2022-10-23T04:49:49.074Z,100.40
2022-10-23T04:51:21.647Z,88.30
2022-10-23T04:52:58.146Z,102.13
2022-10-23T04:54:37.715Z,89.13
2022-10-23T04:56:15.068Z,112.07
2022-10-23T04:57:47.564Z,90.60
2022-10-23T04:59:20.145Z,98.77
2022-10-23T05:00:53.682Z,92.43
2022-10-23T05:02:25.952Z,96.63
2022-10-23T05:03:58.367Z,101.43
2022-10-23T05:05:30.682Z,89.77
2022-10-23T05:07:02.934Z,96.63
2022-10-23T05:08:35.914Z,94.07
2022-10-23T05:10:09.199Z,87.90
2022-10-23T05:11:41.423Z,108.73
2022-10-23T05:13:13.786Z,111.97
2022-10-23T05:14:45.928Z,106.77
2022-10-23T05:16:42.959Z,101.37
2022-10-23T05:18:45.509Z,134.77
2022-10-23T05:20:25.091Z,153.20
2022-10-23T05:21:58.054Z,116.03
2022-10-23T05:23:34.505Z,108.63
2022-10-23T05:25:07.023Z,115.50
2022-10-23T05:26:39.615Z,102.23
2022-10-23T05:28:11.828Z,135.70
2022-10-23T05:29:44.003Z,156.87
2022-10-23T05:31:19.274Z,112.33
2022-10-23T05:32:51.795Z,163.73
2022-10-23T05:34:26.499Z,106.60
2022-10-23T05:36:00.835Z,131.83
2022-10-23T05:37:33.963Z,116.60
2022-10-23T05:39:06.119Z,133.20
2022-10-23T05:42:11.501Z,87.13
2022-10-23T05:43:44.124Z,116.57
2022-10-23T05:45:17.000Z,96.10
2022-10-23T05:46:49.119Z,107.60
2022-10-23T05:48:34.199Z,89.93
2022-10-23T05:50:08.535Z,107.07
2022-10-23T05:51:41.452Z,99.07
2022-10-23T05:53:13.668Z,97.00
2022-10-23T05:54:46.358Z,86.53
2022-10-23T05:56:19.459Z,77.87
2022-10-23T05:57:52.175Z,80.93
2022-10-23T05:59:24.967Z,94.73
2022-10-23T06:00:57.150Z,88.43
2022-10-23T06:02:29.583Z,82.90
2022-10-23T06:04:03.045Z,71.37
2022-10-23T06:05:35.243Z,77.33
2022-10-23T06:07:07.511Z,77.53
2022-10-23T06:08:40.711Z,71.67
2022-10-23T06:10:13.831Z,71.87
2022-10-23T06:11:46.060Z,62.00
2022-10-23T06:13:18.447Z,70.63
2022-10-23T06:14:51.846Z,68.07
2022-10-23T06:16:26.858Z,74.60
2022-10-23T06:18:05.119Z,78.57
2022-10-23T06:19:37.945Z,88.57
2022-10-23T06:21:10.934Z,72.80
2022-10-23T06:22:43.415Z,74.40
2022-10-23T06:24:16.061Z,61.63
2022-10-23T06:25:53.628Z,77.27
2022-10-23T06:27:25.822Z,68.40
2022-10-23T06:28:58.269Z,65.00
2022-10-23T06:30:30.914Z,69.80
2022-10-23T06:32:03.443Z,74.97
2022-10-23T06:33:36.302Z,69.67
2022-10-23T06:35:09.171Z,68.10
2022-10-23T06:36:41.607Z,66.77
2022-10-23T06:38:14.121Z,75.47
2022-10-23T06:39:53.472Z,76.40
2022-10-23T06:41:25.705Z,78.07
2022-10-23T06:42:57.952Z,78.50
2022-10-23T06:44:30.145Z,85.20
2022-10-23T06:46:04.689Z,77.60
2022-10-23T06:47:36.899Z,70.37
2022-10-23T06:49:09.344Z,66.50
2022-10-23T06:50:41.939Z,68.53
2022-10-23T06:52:28.703Z,76.53
2022-10-23T06:54:06.745Z,81.07
2022-10-23T06:55:40.154Z,74.83
2022-10-23T06:57:12.680Z,69.17
2022-10-23T06:58:44.870Z,72.53
2022-10-23T07:00:29.361Z,72.60
2022-10-23T07:02:02.531Z,68.60
2022-10-23T07:03:35.536Z,69.07
2022-10-23T07:05:11.315Z,65.87
2022-10-23T07:06:46.105Z,61.67
2022-10-23T07:08:18.668Z,64.30
2022-10-23T07:09:50.847Z,60.03
2022-10-23T07:11:23.344Z,62.67
2022-10-23T07:13:00.673Z,57.63
2022-10-23T07:14:33.530Z,58.13
2022-10-23T07:16:22.213Z,59.30
2022-10-23T07:17:54.423Z,60.90
2022-10-23T07:19:26.984Z,56.00
2022-10-23T07:20:59.460Z,60.50
2022-10-23T07:22:31.639Z,55.23
2022-10-23T07:24:04.712Z,62.27
2022-10-23T07:25:37.930Z,65.40
2022-10-23T07:27:10.324Z,56.03
2022-10-23T07:28:47.359Z,62.13
2022-10-23T07:30:19.496Z,60.47
2022-10-23T07:31:51.651Z,57.53
2022-10-23T07:33:23.989Z,63.27
2022-10-23T07:34:56.508Z,60.37
2022-10-23T07:36:28.804Z,56.53
2022-10-23T07:38:01.207Z,56.37
2022-10-23T07:39:33.388Z,58.53
2022-10-23T07:41:08.880Z,60.77
2022-10-23T07:42:44.071Z,65.27
2022-10-23T07:44:16.617Z,61.63
2022-10-23T07:45:50.229Z,69.97
2022-10-23T07:47:22.498Z,54.27
2022-10-23T07:48:55.104Z,54.53
2022-10-23T07:50:27.903Z,56.20
2022-10-23T07:52:00.158Z,53.20
2022-10-23T07:53:32.603Z,49.93
2022-10-23T07:55:05.371Z,46.90
2022-10-23T07:56:37.571Z,46.13
2022-10-23T07:58:09.791Z,46.00
2022-10-23T07:59:42.283Z,45.47
2022-10-23T08:01:56.413Z,47.97
2022-10-23T08:03:33.110Z,39.80
2022-10-23T08:05:06.133Z,43.70
2022-10-23T08:06:38.432Z,41.73
2022-10-23T08:08:10.604Z,46.13
2022-10-23T08:09:43.051Z,42.53
2022-10-23T08:11:24.728Z,38.60
2022-10-23T08:12:56.897Z,38.87
2022-10-23T08:14:29.312Z,37.07
2022-10-23T08:16:02.355Z,36.73
2022-10-23T08:17:34.722Z,33.37
2022-10-23T08:19:09.023Z,35.63
2022-10-23T08:20:43.724Z,30.20
2022-10-23T08:22:16.061Z,33.93
2022-10-23T08:23:48.685Z,28.27
2022-10-23T08:25:24.929Z,31.70
2022-10-23T08:26:58.779Z,33.53
2022-10-23T08:28:32.109Z,30.57
2022-10-23T08:30:05.251Z,28.57
2022-10-23T08:31:37.479Z,32.47
2022-10-23T08:33:10.123Z,33.77
2022-10-23T08:34:42.921Z,36.33
2022-10-23T08:36:27.715Z,34.07
2022-10-23T08:37:59.835Z,31.03
2022-10-23T08:39:32.238Z,32.57
2022-10-23T08:41:04.564Z,34.33
2022-10-23T08:42:39.492Z,32.60
2022-10-23T08:44:40.744Z,33.67
2022-10-23T08:46:19.383Z,38.47
2022-10-23T08:47:58.724Z,40.57
2022-10-23T08:50:02.519Z,48.30
2022-10-23T08:51:46.890Z,42.70
2022-10-23T08:53:54.435Z,40.30
2022-10-23T08:55:34.906Z,42.80
2022-10-23T08:57:17.346Z,34.73
2022-10-23T08:59:00.356Z,34.70
2022-10-23T09:00:34.154Z,32.85
2022-10-23T09:03:59.734Z,29.10
2022-10-23T09:05:42.888Z,29.00
2022-10-23T09:08:00.173Z,25.27
2022-10-23T09:10:06.334Z,29.90
